Terminal Aerodrome Forecast
Issued by NWS

Home | Current Version | Previous Version | Text Only | Print | Product List | Glossary On
Versions: 1 2 3 4 5 6 7 8 9 10 11 12 13 14 15 16
000
FTUS43 KAPX 062335
TAFMBL
TAF
KMBL 062335Z 0700/0724 19007KT P6SM VCSH SCT025 OVC035
      WS020/21032KT
     FM070300 21008KT 5SM SHRA BKN025 OVC070
     FM070600 32008KT 6SM -SHRA BR BKN009 OVC020
     FM071300 33012G18KT P6SM BKN018
     FM071600 34014G22KT P6SM FEW035
      AMD LTD TO CLD VIS AND WIND=

USA.gov is the U.S. government's official web portal to all federal, state and local government web resources and services.